Airfield :
LOGIN :

Register | Disclaimer

   EN    FR    IT 

 










Legend :    VFR   Marginal VFR   IFR   Intensive IFR   Very Intensive IFR
Visi :
Ceiling :
>= 8 km
>= 3000ft
5 to 8 km
1000 to 3000 ft
1500m to 5 km
500 to 1000 ft
800 to 1500m
200 to 500 ft
< 800m
< 200 ft
Symbols :   Thunderstorms  Fog  Heavy snow  Heavy precipitations  Wind > 20 kt
SIGMETs :     Misc.  Thunderstorms  Icing  Turbulence  Mountain Waves  Volcanic Ashes






- Airport Elevation : 56 ft
- IATA code : BZR


LFMU - Beziers / Vias

CURRENT METAR :
  • 290830Z AUTO 22005KT 9999 NSC 09/04 Q1018 BECMG 30010KT

EXPIRED METARs :
  • 290800Z AUTO 17003KT 110V240 9999 NSC 09/03 Q1018 BECMG 30010KT
  • 290730Z AUTO 19003KT 140V280 9999 NSC 08/03 Q1018 NOSIG
  • 290700Z AUTO VRB02KT 9999 NSC 07/03 Q1017 NOSIG
  • 290630Z AUTO VRB02KT 9999 NSC 08/03 Q1017 NOSIG
  • 290600Z AUTO VRB02KT 9999 NSC 07/03 Q1017 NOSIG
  • 290530Z AUTO 31006KT 180V350 9999 NSC 09/03 Q1017 NOSIG

TAF TAF LFMU
Valid from the 29 at 03:00 until the 30 at 03:00 UTC


290200Z 2903/3003 24006KT CAVOK
BECMG 2908/2910 30010KT
TEMPO 2911/2914 32015G25KT
ATIS : +33 4 67 90 88 88



MET'MAP, your aeronautical weather chart ! - Copyright ORBIFLY December 2007 - Disclaimer

ORBIFLY MET'MAP TEAM :

Programming & Development : Alexandra Zaïnal
Original concept : Baudouin d'Aumeries
Technical & hardware support : Manuel Goepfert
Assistance : Marc-Olivier Méhu




SOURCES & CREDITS :

   NOAA